createdAt,value
2017-05-01T00:00:39.543Z,19.94
2017-05-01T00:03:08.628Z,22.14
2017-05-01T00:05:37.717Z,19.86
2017-05-01T00:08:06.802Z,21.22
2017-05-01T00:10:36.002Z,20.18
2017-05-01T00:13:05.087Z,19.04
2017-05-01T00:15:34.914Z,19.88
2017-05-01T00:18:04.746Z,22.54
2017-05-01T00:20:33.832Z,17.64
2017-05-01T00:23:02.919Z,18.38
2017-05-01T00:25:31.999Z,19.02
2017-05-01T00:28:01.118Z,19.54
2017-05-01T00:30:30.198Z,19.16
2017-05-01T00:32:59.431Z,20.30
2017-05-01T00:35:28.523Z,19.24
2017-05-01T00:37:57.607Z,18.32
2017-05-01T00:40:26.709Z,22.54
2017-05-01T00:42:55.783Z,20.20
2017-05-01T00:45:25.612Z,20.52
2017-05-01T00:47:54.703Z,20.26
2017-05-01T00:50:23.947Z,22.08
2017-05-01T00:52:53.055Z,20.80
2017-05-01T00:55:22.106Z,20.88
2017-05-01T00:57:51.200Z,19.44
2017-05-01T01:00:20.335Z,20.68
2017-05-01T01:02:49.439Z,19.46
2017-05-01T01:05:19.266Z,20.98
2017-05-01T01:07:48.587Z,19.48
2017-05-01T01:10:23.258Z,20.20
2017-05-01T01:12:52.719Z,22.36
2017-05-01T01:15:21.815Z,19.72
2017-05-01T01:17:50.909Z,21.38
2017-05-01T01:20:20.015Z,18.72
2017-05-01T01:22:49.087Z,18.84
2017-05-01T01:25:18.922Z,18.42
2017-05-01T01:27:47.995Z,16.62
2017-05-01T01:30:18.015Z,19.12
2017-05-01T01:32:47.095Z,17.58
2017-05-01T01:35:16.191Z,17.10
2017-05-01T01:37:45.307Z,17.86
2017-05-01T01:40:14.389Z,16.76
2017-05-01T01:42:44.368Z,17.72
2017-05-01T01:45:13.428Z,17.82
2017-05-01T01:47:42.520Z,18.74
2017-05-01T01:50:11.636Z,17.44
2017-05-01T01:52:40.691Z,19.10
2017-05-01T01:55:09.771Z,20.08
2017-05-01T01:57:38.864Z,19.56
2017-05-01T02:00:08.305Z,19.60
2017-05-01T02:02:37.367Z,20.04
2017-05-01T02:05:06.447Z,17.94
2017-05-01T02:07:36.493Z,18.30
2017-05-01T02:10:06.267Z,18.64
2017-05-01T02:12:35.351Z,19.46
2017-05-01T02:15:05.207Z,18.26
2017-05-01T02:17:34.292Z,19.54
2017-05-01T02:20:03.403Z,18.64
2017-05-01T02:22:32.495Z,19.76
2017-05-01T02:25:01.782Z,19.24
2017-05-01T02:27:31.573Z,17.92
2017-05-01T02:30:00.634Z,20.56
2017-05-01T02:32:29.780Z,18.42
2017-05-01T02:34:58.882Z,18.68
2017-05-01T02:37:27.986Z,17.68
2017-05-01T02:39:57.073Z,18.64
2017-05-01T02:42:26.279Z,19.94
2017-05-01T02:44:55.368Z,19.00
2017-05-01T02:47:24.414Z,18.50
2017-05-01T02:49:54.263Z,17.48
2017-05-01T02:52:23.487Z,19.80
2017-05-01T02:54:52.567Z,18.44
2017-05-01T02:57:21.614Z,17.54
2017-05-01T02:59:51.482Z,19.40
2017-05-01T03:02:20.552Z,19.08
2017-05-01T03:04:49.934Z,17.92
2017-05-01T03:07:19.760Z,19.88
2017-05-01T03:09:48.821Z,16.64
2017-05-01T03:12:17.922Z,18.08
2017-05-01T03:14:47.750Z,18.70
2017-05-01T03:17:17.175Z,17.88
2017-05-01T03:19:46.971Z,19.88
2017-05-01T03:22:16.007Z,17.32
2017-05-01T03:24:45.114Z,18.22
2017-05-01T03:27:14.206Z,19.52
2017-05-01T03:29:43.283Z,18.34
2017-05-01T03:32:12.371Z,20.36
2017-05-01T03:34:41.602Z,20.48
2017-05-01T03:37:10.690Z,17.90
2017-05-01T03:39:39.755Z,20.28
2017-05-01T03:42:08.858Z,18.88
2017-05-01T03:44:37.935Z,19.02
2017-05-01T03:47:07.236Z,18.96
2017-05-01T03:49:37.026Z,17.52
2017-05-01T03:52:06.115Z,20.58
2017-05-01T03:54:35.959Z,19.82
2017-05-01T03:57:05.051Z,23.16
2017-05-01T03:59:34.151Z,19.56
2017-05-01T04:02:03.247Z,20.20
2017-05-01T04:04:32.494Z,20.08
2017-05-01T04:07:02.319Z,18.76
2017-05-01T04:09:32.155Z,19.62
2017-05-01T04:12:01.264Z,21.90
2017-05-01T04:14:30.347Z,20.28
2017-05-01T04:17:00.146Z,22.32
2017-05-01T04:19:29.231Z,20.48
2017-05-01T04:21:58.310Z,19.36
2017-05-01T04:24:28.132Z,20.84
2017-05-01T04:26:57.562Z,20.02
2017-05-01T04:29:26.647Z,20.42
2017-05-01T04:31:55.739Z,18.98
2017-05-01T04:34:24.831Z,21.02
2017-05-01T04:36:54.629Z,21.58
2017-05-01T04:39:24.471Z,19.18
2017-05-01T04:41:53.534Z,20.86
2017-05-01T04:44:23.686Z,21.00
2017-05-01T04:46:52.766Z,21.22
2017-05-01T04:49:21.851Z,21.08
2017-05-01T04:51:50.978Z,21.54
2017-05-01T04:54:20.112Z,20.38
2017-05-01T04:56:49.223Z,21.74
2017-05-01T04:59:18.963Z,17.46
2017-05-01T05:01:48.370Z,20.92
2017-05-01T05:04:17.426Z,21.78
2017-05-01T05:06:46.479Z,19.22
2017-05-01T05:09:15.578Z,22.32
2017-05-01T05:11:44.655Z,18.44
2017-05-01T05:14:13.892Z,21.20
2017-05-01T05:16:42.950Z,20.40
2017-05-01T05:19:12.040Z,21.22
2017-05-01T05:21:41.147Z,22.76
2017-05-01T05:24:10.192Z,20.72
2017-05-01T05:26:40.315Z,19.88
2017-05-01T05:29:09.399Z,19.38
2017-05-01T05:31:39.223Z,20.76
2017-05-01T05:34:08.332Z,22.34
2017-05-01T05:36:37.370Z,20.62
2017-05-01T05:39:06.488Z,19.42
2017-05-01T05:41:35.552Z,21.06
2017-05-01T05:44:04.663Z,21.88
2017-05-01T05:46:33.752Z,21.02
2017-05-01T05:49:02.838Z,19.32
2017-05-01T05:51:31.963Z,20.60
2017-05-01T05:54:01.112Z,22.72
2017-05-01T05:56:30.199Z,19.48
2017-05-01T05:59:00.003Z,20.48
2017-05-01T06:01:29.271Z,20.44
2017-05-01T06:03:59.093Z,22.04
2017-05-01T06:06:28.176Z,20.94
2017-05-01T06:08:58.032Z,20.46
2017-05-01T06:11:27.241Z,22.06
2017-05-01T06:13:56.329Z,20.96
2017-05-01T06:16:25.416Z,20.54
2017-05-01T06:18:54.667Z,21.40
2017-05-01T06:21:23.942Z,20.74
2017-05-01T06:23:53.039Z,19.52
2017-05-01T06:26:22.150Z,21.70
2017-05-01T06:28:51.235Z,20.88
2017-05-01T06:31:20.369Z,22.00
2017-05-01T06:33:50.254Z,21.04
2017-05-01T06:36:20.527Z,20.90
2017-05-01T06:38:49.738Z,23.48
2017-05-01T06:41:18.815Z,21.56
2017-05-01T06:43:47.945Z,22.26
2017-05-01T06:46:17.015Z,23.30
2017-05-01T06:48:46.408Z,22.84
2017-05-01T06:51:15.487Z,22.04
2017-05-01T06:53:44.605Z,21.22
2017-05-01T06:56:13.731Z,20.70
2017-05-01T06:58:42.825Z,22.48
2017-05-01T07:01:12.144Z,21.52
2017-05-01T07:03:41.199Z,21.48
2017-05-01T07:06:10.304Z,24.36
2017-05-01T07:08:39.443Z,23.60
2017-05-01T07:11:08.544Z,22.66
2017-05-01T07:13:37.772Z,22.74
2017-05-01T07:16:07.192Z,24.24
2017-05-01T07:18:36.299Z,21.24
2017-05-01T07:21:05.424Z,22.94
2017-05-01T07:23:34.478Z,22.62
2017-05-01T07:26:03.683Z,22.64
2017-05-01T07:28:33.264Z,23.00
2017-05-01T07:31:02.335Z,24.12
2017-05-01T07:33:31.478Z,23.64
2017-05-01T07:36:00.571Z,22.62
2017-05-01T07:38:29.756Z,22.98
2017-05-01T07:40:58.842Z,21.96
2017-05-01T07:43:27.927Z,22.62
2017-05-01T07:45:57.038Z,22.98
2017-05-01T07:48:26.243Z,22.16
2017-05-01T07:50:55.466Z,23.84
2017-05-01T07:53:24.571Z,24.28
2017-05-01T07:55:54.406Z,22.62
2017-05-01T07:58:24.235Z,18.14
2017-05-01T08:00:53.319Z,20.82
2017-05-01T08:03:22.842Z,20.48
2017-05-01T08:05:52.047Z,22.02
2017-05-01T08:08:21.138Z,21.10
2017-05-01T08:10:50.267Z,23.14
2017-05-01T08:13:19.461Z,23.54
2017-05-01T08:15:48.583Z,20.56
2017-05-01T08:18:17.678Z,22.30
2017-05-01T08:20:47.527Z,24.48
2017-05-01T08:23:16.595Z,23.80
2017-05-01T08:25:45.736Z,21.12
2017-05-01T08:28:14.990Z,21.46
2017-05-01T08:30:44.162Z,22.54
2017-05-01T08:33:13.247Z,20.96
2017-05-01T08:35:42.340Z,24.02
2017-05-01T08:38:11.564Z,22.34
2017-05-01T08:40:40.678Z,26.38
2017-05-01T08:43:09.780Z,25.12
2017-05-01T08:45:38.909Z,22.46
2017-05-01T08:48:08.029Z,21.90
2017-05-01T08:50:37.517Z,25.02
2017-05-01T08:53:07.388Z,24.16
2017-05-01T08:55:36.476Z,25.22
2017-05-01T08:58:05.596Z,23.12
2017-05-01T09:00:34.706Z,23.60
2017-05-01T09:03:03.824Z,24.42
2017-05-01T09:05:33.670Z,23.00
2017-05-01T09:08:03.197Z,24.00
2017-05-01T09:10:32.276Z,23.72
2017-05-01T09:13:01.384Z,24.82
2017-05-01T09:15:30.504Z,22.96
2017-05-01T09:17:59.623Z,23.34
2017-05-01T09:20:28.819Z,23.18
2017-05-01T09:22:58.675Z,22.84
2017-05-01T09:25:27.752Z,24.58
2017-05-01T09:27:57.025Z,24.76
2017-05-01T09:30:26.893Z,23.52
2017-05-01T09:32:56.243Z,24.92
2017-05-01T09:35:25.303Z,25.48
2017-05-01T09:37:54.407Z,23.90
2017-05-01T09:40:23.494Z,26.16
2017-05-01T09:42:52.591Z,24.80
2017-05-01T09:45:21.711Z,27.14
2017-05-01T09:47:51.081Z,26.32
2017-05-01T09:52:54.810Z,31.02
2017-05-01T09:55:24.036Z,26.40
2017-05-01T09:57:53.936Z,27.60
2017-05-01T10:00:23.794Z,28.12
2017-05-01T10:02:52.931Z,30.92
2017-05-01T10:05:22.035Z,27.52
2017-05-01T10:07:52.008Z,32.64
2017-05-01T10:10:21.102Z,27.20
2017-05-01T10:12:50.192Z,31.62
2017-05-01T10:15:19.307Z,29.50
2017-05-01T10:17:48.408Z,31.98
2017-05-01T10:20:17.779Z,29.78
2017-05-01T10:22:46.877Z,29.96
2017-05-01T10:25:15.977Z,29.72
2017-05-01T10:27:45.097Z,26.66
2017-05-01T10:30:14.191Z,29.62
2017-05-01T10:32:43.307Z,31.32
2017-05-01T10:35:13.159Z,31.64
2017-05-01T10:37:43.116Z,27.42
2017-05-01T10:40:12.191Z,25.46
2017-05-01T10:42:41.288Z,28.28
2017-05-01T10:45:10.402Z,26.84
2017-05-01T10:47:39.739Z,28.48
2017-05-01T10:50:09.082Z,29.24
2017-05-01T10:52:38.160Z,26.80
2017-05-01T10:55:07.250Z,24.74
2017-05-01T10:57:36.443Z,30.84
2017-05-01T11:00:05.531Z,28.04
2017-05-01T11:02:34.934Z,26.38
2017-05-01T11:05:04.065Z,28.16
2017-05-01T11:07:33.157Z,24.98
2017-05-01T11:10:02.307Z,23.78
2017-05-01T11:12:31.407Z,23.42
2017-05-01T11:15:00.530Z,24.60
2017-05-01T11:17:29.630Z,23.94
2017-05-01T11:19:58.872Z,22.34
2017-05-01T11:22:28.715Z,26.30
2017-05-01T11:24:57.811Z,24.52
2017-05-01T11:27:26.931Z,25.28
2017-05-01T11:29:56.027Z,30.92
2017-05-01T11:32:25.284Z,28.10
2017-05-01T11:34:55.118Z,25.90
2017-05-01T11:37:24.983Z,27.04
2017-05-01T11:39:54.474Z,26.46
2017-05-01T11:42:23.619Z,25.94
2017-05-01T11:44:52.763Z,26.62
2017-05-01T11:47:21.879Z,26.90
2017-05-01T11:49:51.870Z,25.56
2017-05-01T11:52:20.970Z,29.36
2017-05-01T11:54:50.069Z,31.00
2017-05-01T11:57:19.191Z,29.02
2017-05-01T11:59:49.038Z,27.40
2017-05-01T12:02:18.271Z,30.02
2017-05-01T12:04:47.379Z,29.30
2017-05-01T12:07:16.505Z,27.50
2017-05-01T12:09:46.363Z,27.96
2017-05-01T12:12:15.455Z,23.00
2017-05-01T12:14:44.718Z,20.72
2017-05-01T12:17:13.544Z,21.86
2017-05-01T12:19:42.636Z,24.64
2017-05-01T12:22:11.948Z,23.72
2017-05-01T12:24:41.069Z,23.20
2017-05-01T12:27:10.909Z,23.72
2017-05-01T12:29:40.149Z,27.44
2017-05-01T12:32:09.438Z,24.82
2017-05-01T12:34:38.538Z,23.98
2017-05-01T12:37:07.746Z,25.22
2017-05-01T12:39:36.871Z,29.44
2017-05-01T12:42:06.065Z,31.40
2017-05-01T12:44:35.531Z,30.46
2017-05-01T12:47:04.622Z,29.10
2017-05-01T12:49:33.728Z,27.32
2017-05-01T12:52:03.223Z,27.58
2017-05-01T12:54:32.319Z,24.62
2017-05-01T12:57:01.501Z,23.60
2017-05-01T12:59:30.708Z,25.90
2017-05-01T13:01:59.807Z,25.94
2017-05-01T13:04:28.891Z,26.18
2017-05-01T13:06:58.145Z,29.22
2017-05-01T13:09:28.335Z,25.66
2017-05-01T13:11:57.575Z,28.68
2017-05-01T13:14:26.801Z,38.40
2017-05-01T13:16:55.999Z,29.64
2017-05-01T13:19:25.097Z,21.74
2017-05-01T13:21:54.223Z,25.02
2017-05-01T13:24:23.320Z,26.88
2017-05-01T13:26:52.538Z,26.08
2017-05-01T13:29:22.380Z,24.02
2017-05-01T13:31:51.472Z,25.60
2017-05-01T13:34:21.723Z,23.80
2017-05-01T13:36:51.002Z,23.02
2017-05-01T13:39:20.121Z,21.44
2017-05-01T13:41:49.240Z,21.42
2017-05-01T13:44:18.300Z,21.26
2017-05-01T13:46:47.760Z,20.36
2017-05-01T13:49:17.597Z,19.98
2017-05-01T13:51:46.673Z,18.16
2017-05-01T13:54:16.643Z,16.72
2017-05-01T13:56:45.740Z,20.80
2017-05-01T13:59:14.863Z,21.38
2017-05-01T14:01:44.131Z,21.46
2017-05-01T14:04:13.850Z,18.88
2017-05-01T14:06:42.951Z,17.68
2017-05-01T14:09:12.732Z,17.30
2017-05-01T14:11:41.853Z,22.16
2017-05-01T14:14:10.955Z,22.44
2017-05-01T14:16:40.838Z,20.24
2017-05-01T14:19:09.953Z,18.92
2017-05-01T14:21:39.413Z,19.44
2017-05-01T14:24:08.507Z,22.34
2017-05-01T14:26:37.625Z,23.14
2017-05-01T14:29:06.734Z,20.44
2017-05-01T14:31:35.825Z,24.76
2017-05-01T14:34:05.443Z,23.68
2017-05-01T14:36:34.535Z,21.70
2017-05-01T14:39:03.639Z,21.08
2017-05-01T14:41:32.791Z,20.20
2017-05-01T14:44:01.914Z,18.72
2017-05-01T14:46:31.110Z,20.98
2017-05-01T14:49:00.210Z,23.12
2017-05-01T14:51:29.324Z,23.42
2017-05-01T14:53:58.512Z,21.16
2017-05-01T14:56:28.214Z,19.02
2017-05-01T14:58:58.505Z,19.10
2017-05-01T15:01:27.716Z,18.96
2017-05-01T15:03:56.845Z,19.98
2017-05-01T15:06:26.274Z,21.68
2017-05-01T15:08:56.135Z,21.36
2017-05-01T15:11:25.448Z,22.74
2017-05-01T15:13:54.605Z,18.52
2017-05-01T15:16:24.452Z,19.62
2017-05-01T15:18:54.560Z,20.36
2017-05-01T15:21:23.664Z,18.96
2017-05-01T15:23:52.803Z,18.88
2017-05-01T15:26:22.008Z,21.50
2017-05-01T15:28:51.858Z,21.58
2017-05-01T15:31:21.289Z,21.88
2017-05-01T15:33:50.502Z,17.48
2017-05-01T15:36:20.461Z,16.76
2017-05-01T15:38:49.857Z,19.46
2017-05-01T15:41:18.998Z,19.46
2017-05-01T15:43:48.951Z,22.64
2017-05-01T15:46:18.720Z,21.86
2017-05-01T15:48:47.961Z,20.86
2017-05-01T15:51:17.202Z,19.14
2017-05-01T15:53:46.445Z,18.90
2017-05-01T15:56:15.630Z,19.54
2017-05-01T15:58:44.755Z,20.36
2017-05-01T16:01:13.838Z,17.46
2017-05-01T16:03:44.126Z,17.80
2017-05-01T16:06:13.200Z,18.64
2017-05-01T16:08:42.409Z,19.68
2017-05-01T16:11:12.443Z,19.60
2017-05-01T16:13:41.621Z,25.96
2017-05-01T16:16:11.142Z,18.40
2017-05-01T16:18:40.393Z,19.98
2017-05-01T16:21:09.967Z,20.58
2017-05-01T16:23:39.154Z,22.22
2017-05-01T16:26:08.456Z,19.62
2017-05-01T16:28:37.705Z,19.04
2017-05-01T16:31:07.479Z,23.10
2017-05-01T16:33:37.548Z,21.64
2017-05-01T16:36:07.484Z,20.92
2017-05-01T16:38:37.367Z,22.56
2017-05-01T16:41:07.563Z,23.70
2017-05-01T16:43:36.683Z,23.86
2017-05-01T16:48:41.255Z,25.60
2017-05-01T16:51:10.574Z,20.54
2017-05-01T16:53:40.029Z,22.60
2017-05-01T16:56:09.174Z,24.24
2017-05-01T16:58:38.358Z,25.78
2017-05-01T17:01:07.451Z,28.18
2017-05-01T17:03:37.415Z,22.84
2017-05-01T17:06:06.526Z,23.12
2017-05-01T17:08:35.667Z,26.56
2017-05-01T17:11:04.853Z,22.16
2017-05-01T17:13:34.695Z,21.80
2017-05-01T17:16:03.809Z,22.40
2017-05-01T17:18:32.913Z,22.28
2017-05-01T17:21:02.177Z,22.04
2017-05-01T17:23:31.275Z,21.02
2017-05-01T17:26:00.431Z,21.14
2017-05-01T17:28:30.024Z,23.00
2017-05-01T17:30:59.530Z,19.88
2017-05-01T17:33:29.042Z,18.16
2017-05-01T17:35:58.535Z,20.40
2017-05-01T17:38:27.707Z,20.22
2017-05-01T17:40:56.826Z,20.58
2017-05-01T17:43:25.891Z,22.76
2017-05-01T17:45:55.824Z,19.84
2017-05-01T17:48:24.900Z,22.50
2017-05-01T17:50:53.996Z,23.34
2017-05-01T17:53:23.099Z,19.48
2017-05-01T17:55:52.900Z,18.36
2017-05-01T17:58:22.018Z,20.44
2017-05-01T18:00:51.117Z,21.14
2017-05-01T18:03:21.023Z,22.40
2017-05-01T18:05:50.152Z,22.90
2017-05-01T18:08:19.280Z,23.48
2017-05-01T18:10:48.394Z,23.80
2017-05-01T18:13:17.488Z,22.48
2017-05-01T18:15:46.854Z,30.22
2017-05-01T18:18:16.075Z,23.70
2017-05-01T18:20:45.139Z,26.60
2017-05-01T18:23:14.231Z,24.34
2017-05-01T18:25:43.297Z,25.06
2017-05-01T18:28:12.478Z,23.86
2017-05-01T18:30:41.602Z,23.28
2017-05-01T18:33:11.014Z,22.42
2017-05-01T18:35:40.163Z,18.88
2017-05-01T18:38:09.244Z,22.48
2017-05-01T18:40:38.515Z,21.64
2017-05-01T18:43:08.356Z,20.16
2017-05-01T18:45:38.193Z,18.60
2017-05-01T18:48:07.320Z,20.36
2017-05-01T18:50:36.423Z,18.14
2017-05-01T18:53:05.625Z,17.48
2017-05-01T18:55:35.838Z,17.66
2017-05-01T18:58:05.047Z,19.64
2017-05-01T19:00:34.152Z,20.66
2017-05-01T19:03:03.373Z,15.16
2017-05-01T19:05:32.443Z,19.72
2017-05-01T19:08:02.255Z,16.20
2017-05-01T19:10:32.203Z,18.48
2017-05-01T19:13:01.409Z,16.00
2017-05-01T19:15:30.482Z,17.62
2017-05-01T19:17:59.584Z,14.52
2017-05-01T19:20:29.379Z,13.50
2017-05-01T19:22:58.911Z,14.44
2017-05-01T19:25:27.998Z,20.20
2017-05-01T19:27:57.098Z,13.92
2017-05-01T19:30:26.202Z,16.42
2017-05-01T19:32:55.272Z,20.96
2017-05-01T19:35:24.505Z,14.32
2017-05-01T19:37:53.592Z,14.78
2017-05-01T19:40:22.694Z,11.38
2017-05-01T19:42:51.806Z,10.88
2017-05-01T19:45:20.951Z,10.56
2017-05-01T19:47:50.210Z,15.28
2017-05-01T19:50:19.310Z,10.46
2017-05-01T19:52:48.392Z,12.38
2017-05-01T19:55:17.534Z,12.74
2017-05-01T19:57:46.619Z,12.64
2017-05-01T20:00:16.126Z,12.00
2017-05-01T20:02:45.230Z,13.42
2017-05-01T20:05:14.301Z,12.86
2017-05-01T20:07:43.692Z,11.68
2017-05-01T20:10:12.768Z,11.64
2017-05-01T20:12:42.287Z,12.54
2017-05-01T20:15:11.367Z,11.56
2017-05-01T20:17:40.654Z,12.50
2017-05-01T20:20:09.734Z,16.06
2017-05-01T20:22:38.810Z,12.28
2017-05-01T20:25:08.200Z,14.26
2017-05-01T20:27:37.263Z,11.20
2017-05-01T20:30:06.384Z,13.04
2017-05-01T20:32:35.494Z,12.40
2017-05-01T20:35:04.583Z,11.86
2017-05-01T20:37:33.826Z,12.54
2017-05-01T20:40:02.922Z,14.46
2017-05-01T20:42:31.994Z,14.80
2017-05-01T20:45:01.103Z,12.74
2017-05-01T20:47:30.184Z,12.44
2017-05-01T20:49:59.278Z,14.20
2017-05-01T20:52:28.372Z,11.14
2017-05-01T20:54:57.741Z,13.60
2017-05-01T20:57:26.804Z,13.32
2017-05-01T20:59:55.910Z,13.00
2017-05-01T21:02:25.766Z,13.60
2017-05-01T21:04:54.863Z,13.78
2017-05-01T21:07:24.119Z,14.42
2017-05-01T21:09:53.179Z,14.48
2017-05-01T21:12:22.271Z,13.54
2017-05-01T21:14:51.372Z,13.12
2017-05-01T21:17:20.599Z,13.56
2017-05-01T21:19:50.439Z,14.96
2017-05-01T21:22:20.268Z,15.58
2017-05-01T21:24:49.413Z,17.06
2017-05-01T21:27:18.488Z,20.78
2017-05-01T21:29:47.883Z,15.92
2017-05-01T21:32:17.290Z,14.42
2017-05-01T21:34:46.359Z,14.22
2017-05-01T21:37:15.467Z,15.00
2017-05-01T21:39:44.539Z,15.94
2017-05-01T21:42:13.659Z,16.86
2017-05-01T21:44:42.719Z,17.20
2017-05-01T21:47:12.046Z,15.44
2017-05-01T21:49:41.147Z,17.38
2017-05-01T21:52:11.048Z,12.16
2017-05-01T21:54:40.136Z,11.12
2017-05-01T21:57:09.231Z,13.10
2017-05-01T21:59:38.762Z,11.50
2017-05-01T22:02:07.859Z,13.44
2017-05-01T22:04:37.883Z,14.00
2017-05-01T22:07:06.974Z,12.64
2017-05-01T22:09:36.067Z,13.70
2017-05-01T22:12:05.146Z,13.36
2017-05-01T22:14:34.246Z,15.08
2017-05-01T22:17:03.548Z,13.06
2017-05-01T22:19:32.597Z,14.82
2017-05-01T22:22:01.690Z,17.80
2017-05-01T22:24:30.811Z,16.38
2017-05-01T22:26:59.871Z,14.50
2017-05-01T22:29:29.850Z,13.82
2017-05-01T22:31:58.939Z,13.24
2017-05-01T22:34:28.035Z,16.76
2017-05-01T22:36:57.924Z,15.16
2017-05-01T22:39:27.007Z,17.10
2017-05-01T22:41:56.224Z,14.18
2017-05-01T22:44:25.303Z,14.22
2017-05-01T22:46:54.524Z,14.44
2017-05-01T22:49:23.619Z,15.98
2017-05-01T22:51:52.724Z,15.70
2017-05-01T22:54:21.839Z,15.72
2017-05-01T22:56:51.111Z,17.82
2017-05-01T22:59:20.495Z,15.82
2017-05-01T23:01:49.583Z,16.46
2017-05-01T23:04:18.789Z,16.76
2017-05-01T23:06:47.889Z,15.96
2017-05-01T23:09:16.948Z,17.98
2017-05-01T23:11:46.990Z,15.50
2017-05-01T23:14:16.779Z,15.92
2017-05-01T23:16:45.877Z,18.12
2017-05-01T23:19:15.717Z,17.06
2017-05-01T23:21:44.795Z,15.56
2017-05-01T23:24:14.099Z,16.40
2017-05-01T23:26:43.191Z,16.98
2017-05-01T23:29:12.521Z,14.40
2017-05-01T23:31:41.638Z,16.64
2017-05-01T23:34:11.494Z,16.60
2017-05-01T23:36:40.707Z,15.34
2017-05-01T23:39:09.799Z,13.92
2017-05-01T23:41:38.895Z,17.14
2017-05-01T23:44:10.062Z,15.06
2017-05-01T23:46:39.235Z,15.74
2017-05-01T23:49:08.630Z,14.24
2017-05-01T23:51:37.708Z,15.60
2017-05-01T23:54:06.807Z,13.24
2017-05-01T23:56:35.910Z,14.74
2017-05-01T23:59:04.976Z,13.64
